Time;durP1;ratioP1;P1;durP2;ratioP2;P2;SDS_P1;SDS_P2;PMS_P1;PMS_P2;Temp;Humidity;BMP_temperature;BMP_pressure;BME280_temperature;BME280_humidity;BME280_pressure;Samples;Min_cycle;Max_cycle;Signal;HPM_P1;HPM_P2
2022/10/11 00:01:10;;;;;;;11.33;2.70;;;12.40;1.00;;;;;;5042928;28;20424;-82
2022/10/11 00:03:38;;;;;;;8.43;2.77;;;12.40;1.00;;;;;;5047973;28;20432;-79
2022/10/11 00:06:09;;;;;;;8.90;2.73;;;12.30;1.00;;;;;;5043431;28;20490;-81
2022/10/11 00:08:38;;;;;;;9.40;2.63;;;12.20;1.00;;;;;;5043463;28;20506;-82
2022/10/11 00:11:07;;;;;;;7.37;2.40;;;12.20;1.00;;;;;;5044566;28;20433;-80
2022/10/11 00:13:37;;;;;;;7.90;2.60;;;12.10;1.00;;;;;;5045506;28;20444;-79
2022/10/11 00:16:13;;;;;;;9.90;3.13;;;12.10;1.00;;;;;;5042983;28;20440;-83
2022/10/11 00:18:42;;;;;;;11.27;2.80;;;12.00;1.00;;;;;;5049118;28;20526;-83
2022/10/11 00:21:20;;;;;;;7.30;2.17;;;12.00;1.00;;;;;;5042215;28;20432;-83
2022/10/11 00:23:49;;;;;;;7.87;2.33;;;11.90;1.00;;;;;;5049108;28;20445;-82
2022/10/11 00:26:18;;;;;;;9.93;2.30;;;11.90;1.00;;;;;;5048079;28;20450;-81
2022/10/11 00:28:47;;;;;;;9.93;2.30;;;11.80;1.00;;;;;;5044082;28;21368;-79
2022/10/11 00:31:18;;;;;;;8.57;2.70;;;11.80;1.00;;;;;;5042790;28;20477;-80
2022/10/11 00:33:57;;;;;;;12.63;2.63;;;11.80;1.00;;;;;;5044295;28;20483;-81
2022/10/11 00:36:28;;;;;;;9.07;2.67;;;11.70;1.00;;;;;;5042168;28;20416;-83
2022/10/11 00:38:56;;;;;;;7.80;2.47;;;11.70;1.00;;;;;;5045278;28;22160;-80
2022/10/11 00:41:28;;;;;;;8.47;2.63;;;11.70;1.00;;;;;;5045452;28;20402;-81
2022/10/11 00:44:10;;;;;;;7.17;2.37;;;11.70;1.00;;;;;;5038551;28;20441;-80
2022/10/11 00:46:39;;;;;;;8.33;2.57;;;11.60;1.00;;;;;;5039123;28;20441;-77
2022/10/11 00:49:19;;;;;;;8.77;2.07;;;11.50;1.00;;;;;;5044728;28;20416;-81
2022/10/11 00:51:50;;;;;;;12.30;2.60;;;11.50;1.00;;;;;;5042878;28;20488;-83
2022/10/11 00:54:27;;;;;;;11.57;2.77;;;11.50;1.00;;;;;;5039628;28;20477;-83
2022/10/11 00:56:59;;;;;;;7.10;1.83;;;11.50;1.00;;;;;;5048845;28;20488;-78
2022/10/11 00:59:37;;;;;;;10.20;2.83;;;11.40;1.00;;;;;;5042169;28;20472;-78
2022/10/11 01:02:19;;;;;;;9.70;2.50;;;11.40;1.00;;;;;;5041382;28;20409;-77
2022/10/11 01:04:46;;;;;;;10.30;2.83;;;11.30;1.00;;;;;;5040379;28;20483;-77
2022/10/11 01:07:19;;;;;;;12.27;2.50;;;11.30;1.00;;;;;;5038544;28;20433;-78
2022/10/11 01:09:49;;;;;;;10.77;2.50;;;11.30;1.00;;;;;;5044160;28;20539;-80
2022/10/11 01:12:22;;;;;;;11.07;2.50;;;11.20;1.00;;;;;;5040812;28;20967;-81
2022/10/11 01:15:17;;;;;;;6.70;2.27;;;11.20;1.00;;;;;;5036179;28;20458;-84
2022/10/11 01:18:00;;;;;;;12.47;2.90;;;11.20;1.00;;;;;;5043021;28;20513;-78
2022/10/11 01:20:47;;;;;;;9.37;3.13;;;11.10;1.00;;;;;;5041557;28;21318;-80
2022/10/11 01:23:56;;;;;;;8.47;2.30;;;11.10;1.00;;;;;;5040387;28;20476;-83
2022/10/11 01:27:09;;;;;;;9.47;2.20;;;11.10;1.00;;;;;;5045020;28;20835;-81
2022/10/11 01:29:57;;;;;;;9.17;2.10;;;11.00;1.00;;;;;;5023638;28;20550;-79
2022/10/11 01:32:40;;;;;;;8.13;2.60;;;11.00;1.00;;;;;;5042714;28;20425;-79
2022/10/11 01:35:16;;;;;;;8.53;2.63;;;10.90;1.00;;;;;;5043623;28;20432;-81
2022/10/11 01:37:54;;;;;;;14.67;2.60;;;10.90;1.00;;;;;;5038319;28;20464;-77
2022/10/11 01:40:27;;;;;;;12.53;2.83;;;10.90;1.00;;;;;;5044051;28;20888;-80
2022/10/11 01:42:58;;;;;;;11.63;2.80;;;10.80;1.00;;;;;;5039985;28;20508;-81
2022/10/11 01:45:28;;;;;;;12.03;2.80;;;10.80;1.00;;;;;;5037574;28;20412;-78
2022/10/11 01:48:09;;;;;;;7.77;2.40;;;10.80;1.00;;;;;;5036862;28;20444;-79
2022/10/11 01:50:46;;;;;;;10.87;3.07;;;10.80;1.00;;;;;;5039951;28;20501;-83
2022/10/11 01:53:55;;;;;;;13.07;3.93;;;10.70;1.00;;;;;;5048780;28;20436;-82
2022/10/11 01:56:44;;;;;;;9.17;2.57;;;10.70;1.00;;;;;;4964916;28;20452;-84
2022/10/11 01:59:40;;;;;;;13.63;3.20;;;10.70;1.00;;;;;;5036048;28;20477;-80
2022/10/11 02:02:17;;;;;;;11.40;2.60;;;10.70;1.00;;;;;;5043988;28;20417;-79
2022/10/11 02:04:56;;;;;;;11.00;3.33;;;10.60;1.00;;;;;;5045383;28;20409;-77
2022/10/11 02:07:31;;;;;;;15.03;3.20;;;10.60;1.00;;;;;;5043041;28;20452;-83
2022/10/11 02:10:16;;;;;;;13.03;2.83;;;10.60;1.00;;;;;;5044483;28;20480;-81
2022/10/11 02:12:49;;;;;;;12.47;3.60;;;10.60;1.00;;;;;;5048591;28;20425;-85
2022/10/11 02:15:20;;;;;;;10.60;2.27;;;10.60;1.00;;;;;;5044228;28;20457;-83
2022/10/11 02:17:53;;;;;;;13.90;3.33;;;10.60;1.00;;;;;;5028140;28;21041;-78
2022/10/11 02:20:27;;;;;;;12.90;3.20;;;10.60;1.00;;;;;;5039308;28;20869;-81
2022/10/11 02:23:05;;;;;;;12.23;2.73;;;10.50;1.00;;;;;;5044609;28;20489;-76
2022/10/11 02:25:37;;;;;;;11.80;2.90;;;10.50;1.00;;;;;;5049402;28;20452;-83
2022/10/11 02:28:11;;;;;;;14.17;4.27;;;10.40;1.00;;;;;;5044630;28;20421;-81
2022/10/11 02:30:43;;;;;;;13.90;3.10;;;10.40;1.00;;;;;;5045127;28;20444;-80
2022/10/11 02:33:18;;;;;;;11.47;3.97;;;10.40;1.00;;;;;;5043435;28;20409;-82
2022/10/11 02:35:59;;;;;;;13.80;2.97;;;10.40;1.00;;;;;;5038633;28;20431;-83
2022/10/11 02:38:37;;;;;;;12.47;3.10;;;10.40;1.00;;;;;;5037227;28;20444;-80
2022/10/11 02:41:19;;;;;;;16.10;3.20;;;10.40;1.00;;;;;;5040856;28;20443;-78
2022/10/11 02:43:51;;;;;;;13.83;3.70;;;10.40;1.00;;;;;;5037472;28;21645;-82
2022/10/11 02:46:18;;;;;;;13.97;2.70;;;10.40;1.00;;;;;;5044835;28;20437;-81
2022/10/11 02:48:50;;;;;;;10.57;2.70;;;10.40;1.00;;;;;;5043383;28;20412;-78
2022/10/11 02:51:20;;;;;;;9.20;2.67;;;10.40;1.00;;;;;;5041293;28;20448;-78
2022/10/11 02:53:48;;;;;;;15.23;3.70;;;10.40;1.00;;;;;;5042922;28;20436;-78
2022/10/11 02:56:21;;;;;;;14.70;3.47;;;10.30;1.00;;;;;;5038469;28;20432;-78
2022/10/11 02:58:48;;;;;;;13.00;3.57;;;10.30;1.00;;;;;;5047126;28;20452;-83
2022/10/11 03:01:19;;;;;;;14.10;4.10;;;10.30;1.00;;;;;;5041604;28;20433;-84
2022/10/11 03:03:48;;;;;;;10.93;3.10;;;10.20;1.00;;;;;;5054800;28;20412;-86
2022/10/11 03:06:32;;;;;;;16.03;2.93;;;10.20;1.00;;;;;;5050297;28;20412;-83
2022/10/11 03:09:09;;;;;;;18.27;4.67;;;10.20;1.00;;;;;;5039504;28;20538;-82
2022/10/11 03:11:39;;;;;;;10.43;3.13;;;10.20;1.00;;;;;;5038851;28;20443;-81
2022/10/11 03:14:09;;;;;;;11.83;3.30;;;10.20;1.00;;;;;;5042058;28;20448;-82
2022/10/11 03:16:39;;;;;;;12.10;3.40;;;10.10;1.00;;;;;;5030125;28;20444;-81
2022/10/11 03:19:10;;;;;;;14.10;5.30;;;10.10;1.00;;;;;;5044658;28;21656;-81
2022/10/11 03:21:39;;;;;;;10.87;2.80;;;10.20;1.00;;;;;;5045805;28;20452;-80
2022/10/11 03:24:07;;;;;;;10.30;2.97;;;10.10;1.00;;;;;;5048319;28;20440;-78
2022/10/11 03:26:42;;;;;;;13.70;4.50;;;10.10;1.00;;;;;;5050116;28;20444;-82
2022/10/11 03:29:10;;;;;;;11.47;3.10;;;10.10;1.00;;;;;;5042122;28;20459;-83
2022/10/11 03:31:40;;;;;;;13.97;3.40;;;10.10;1.00;;;;;;5047954;28;20440;-81
2022/10/11 03:34:07;;;;;;;17.73;3.93;;;10.00;1.00;;;;;;5053504;28;20460;-85
2022/10/11 03:36:40;;;;;;;11.63;3.45;;;10.00;1.00;;;;;;5040765;28;20438;-81
2022/10/11 03:39:10;;;;;;;13.83;3.13;;;10.00;1.00;;;;;;5047997;28;20288;-83
2022/10/11 03:41:38;;;;;;;13.90;3.20;;;9.90;1.00;;;;;;5042159;28;20433;-83
2022/10/11 03:44:07;;;;;;;14.80;3.95;;;10.00;1.00;;;;;;5052865;28;20493;-79
2022/10/11 03:46:38;;;;;;;13.03;3.70;;;9.90;1.00;;;;;;5049667;28;20233;-81
2022/10/11 03:49:08;;;;;;;15.50;3.53;;;9.90;1.00;;;;;;5050116;28;20468;-83
2022/10/11 03:51:38;;;;;;;14.83;4.20;;;10.00;1.00;;;;;;5052685;28;20503;-80
2022/10/11 03:54:08;;;;;;;12.00;4.13;;;9.90;1.00;;;;;;5052127;28;20582;-80
2022/10/11 03:56:44;;;;;;;14.10;3.27;;;9.90;1.00;;;;;;5045533;28;20296;-81
2022/10/11 03:59:19;;;;;;;10.93;3.50;;;9.90;1.00;;;;;;5056949;28;20543;-81
2022/10/11 04:01:49;;;;;;;15.10;4.37;;;9.90;1.00;;;;;;5056288;28;20439;-78
2022/10/11 04:04:22;;;;;;;17.10;3.83;;;9.90;1.00;;;;;;5047228;28;20471;-78
2022/10/11 04:06:49;;;;;;;18.20;5.03;;;10.00;1.00;;;;;;5021373;28;21995;-76
2022/10/11 04:09:19;;;;;;;15.97;5.93;;;10.00;1.00;;;;;;5055392;28;20416;-82
2022/10/11 04:11:47;;;;;;;16.40;5.10;;;9.90;1.00;;;;;;5051558;28;20476;-84
2022/10/11 04:14:18;;;;;;;10.57;3.67;;;9.90;1.00;;;;;;5050399;28;20405;-81
2022/10/11 04:16:50;;;;;;;16.57;3.77;;;9.90;1.00;;;;;;5045221;28;20448;-82
2022/10/11 04:19:19;;;;;;;16.20;4.50;;;9.90;1.00;;;;;;5048034;28;20448;-83
2022/10/11 04:21:49;;;;;;;13.17;4.10;;;9.90;1.00;;;;;;5049927;28;20971;-76
2022/10/11 04:24:18;;;;;;;16.92;4.85;;;9.90;1.00;;;;;;5041170;28;20455;-79
2022/10/11 04:26:47;;;;;;;15.67;5.17;;;9.90;1.00;;;;;;5042267;28;21147;-79
2022/10/11 04:29:18;;;;;;;14.90;5.00;;;9.90;1.00;;;;;;5045463;28;20417;-77
2022/10/11 04:31:49;;;;;;;14.70;4.97;;;9.90;1.00;;;;;;5052953;28;20484;-77
2022/10/11 04:34:18;;;;;;;18.70;5.60;;;9.80;1.00;;;;;;5047754;28;20534;-78
2022/10/11 04:36:48;;;;;;;16.60;4.63;;;9.80;1.00;;;;;;5050018;28;20461;-81
2022/10/11 04:39:29;;;;;;;14.43;4.97;;;9.80;1.00;;;;;;5053382;28;20233;-81
2022/10/11 04:41:59;;;;;;;18.67;5.53;;;9.70;1.00;;;;;;5040806;28;20417;-81
2022/10/11 04:44:29;;;;;;;17.63;4.57;;;9.70;1.00;;;;;;5040998;28;20429;-81
2022/10/11 04:46:58;;;;;;;13.00;4.20;;;9.80;1.00;;;;;;5048838;28;20428;-78
2022/10/11 04:49:38;;;;;;;20.57;5.20;;;9.80;1.00;;;;;;5047518;28;20433;-83
2022/10/11 04:52:09;;;;;;;14.23;4.65;;;9.70;1.00;;;;;;5049938;28;20483;-81
2022/10/11 04:54:40;;;;;;;14.00;4.85;;;9.70;1.00;;;;;;5050063;28;20229;-81
2022/10/11 04:57:08;;;;;;;16.13;4.80;;;9.70;1.00;;;;;;5050311;28;20240;-81
2022/10/11 04:59:38;;;;;;;15.83;4.97;;;9.70;1.00;;;;;;5042762;28;20481;-83
2022/10/11 05:02:05;;;;;;;14.88;5.05;;;9.70;1.00;;;;;;5044632;28;20483;-84
2022/10/11 05:04:36;;;;;;;17.60;5.20;;;9.70;1.00;;;;;;5039672;28;20941;-83
2022/10/11 05:07:05;;;;;;;13.03;4.77;;;9.60;1.00;;;;;;5037921;28;20234;-84
2022/10/11 05:09:32;;;;;;;14.10;4.83;;;9.60;1.00;;;;;;5038915;28;20464;-83
2022/10/11 05:12:00;;;;;;;15.77;5.10;;;9.60;1.00;;;;;;5039649;28;20456;-84
2022/10/11 05:14:30;;;;;;;16.25;5.90;;;9.60;1.00;;;;;;5035450;28;20242;-83
2022/10/11 05:16:58;;;;;;;17.93;5.93;;;9.60;1.00;;;;;;5044505;28;20233;-82
2022/10/11 05:19:27;;;;;;;14.87;5.57;;;9.60;1.00;;;;;;5036566;28;21445;-84
2022/10/11 05:24:31;;;;;;;14.13;5.25;;;9.60;1.00;;;;;;4821160;26;20457;-83
2022/10/11 05:27:03;;;;;;;21.73;5.77;;;9.60;1.00;;;;;;5029615;28;20234;-83
2022/10/11 05:29:30;;;;;;;19.30;5.33;;;9.60;1.00;;;;;;5027482;28;20461;-83
2022/10/11 05:31:59;;;;;;;20.80;6.80;;;9.60;1.00;;;;;;5027431;28;20565;-84
2022/10/11 05:34:27;;;;;;;17.83;5.20;;;9.60;1.00;;;;;;5031146;28;20996;-84
2022/10/11 05:36:56;;;;;;;16.42;6.55;;;9.50;1.00;;;;;;5030477;28;20525;-84
2022/10/11 05:39:27;;;;;;;16.85;5.80;;;9.60;1.00;;;;;;5026807;28;20245;-85
2022/10/11 05:42:02;;;;;;;17.43;6.93;;;9.60;1.00;;;;;;5026941;28;20249;-88
2022/10/11 05:44:30;;;;;;;17.00;7.20;;;9.60;1.00;;;;;;5023742;28;21276;-81
2022/10/11 05:46:58;;;;;;;20.87;6.57;;;9.70;1.00;;;;;;5021921;28;20550;-81
2022/10/11 05:49:25;;;;;;;13.67;4.90;;;9.70;1.00;;;;;;5022299;28;20548;-82
2022/10/11 05:51:52;;;;;;;21.50;6.50;;;9.70;1.00;;;;;;5024375;28;20859;-81
2022/10/11 05:54:23;;;;;;;18.00;6.63;;;9.70;1.00;;;;;;5021406;28;20445;-81
2022/10/11 05:56:50;;;;;;;14.13;4.90;;;9.80;1.00;;;;;;5017732;28;20468;-81
2022/10/11 05:59:17;;;;;;;28.07;7.70;;;9.70;1.00;;;;;;5018403;28;21184;-81
2022/10/11 06:01:47;;;;;;;15.80;6.37;;;9.80;1.00;;;;;;5016413;28;20438;-82
2022/10/11 06:04:15;;;;;;;13.30;5.17;;;9.80;1.00;;;;;;5016724;28;20970;-83
2022/10/11 06:06:42;;;;;;;22.90;6.50;;;9.80;1.00;;;;;;5015129;28;20465;-82
2022/10/11 06:09:09;;;;;;;16.93;6.70;;;9.90;1.00;;;;;;5022842;28;21181;-82
2022/10/11 06:11:35;;;;;;;18.07;5.57;;;9.90;1.00;;;;;;5020899;28;20538;-82
2022/10/11 06:14:02;;;;;;;19.83;6.73;;;10.00;1.00;;;;;;5018281;28;20471;-82
2022/10/11 06:16:29;;;;;;;16.50;6.00;;;9.90;1.00;;;;;;5016226;28;20454;-82
2022/10/11 06:18:57;;;;;;;22.53;6.90;;;10.00;1.00;;;;;;5020732;28;20457;-81
2022/10/11 06:21:25;;;;;;;12.13;5.70;;;10.00;1.00;;;;;;5022799;28;21048;-82
2022/10/11 06:23:53;;;;;;;12.90;5.23;;;10.00;1.00;;;;;;5017123;28;20456;-81
2022/10/11 06:26:19;;;;;;;24.90;10.07;;;10.10;1.00;;;;;;5016522;28;20544;-82
2022/10/11 06:28:46;;;;;;;17.07;6.30;;;10.10;1.00;;;;;;5014215;28;20472;-82
2022/10/11 06:31:14;;;;;;;13.97;5.60;;;10.10;1.00;;;;;;5019101;28;20888;-81
2022/10/11 06:33:41;;;;;;;19.33;6.10;;;10.10;1.00;;;;;;5024856;28;21873;-81
2022/10/11 06:36:12;;;;;;;12.57;4.90;;;10.20;1.00;;;;;;5021772;28;20464;-81
2022/10/11 06:38:39;;;;;;;12.53;4.87;;;10.20;1.00;;;;;;5012869;28;21665;-79
2022/10/11 06:41:11;;;;;;;14.53;5.70;;;10.20;1.00;;;;;;5017234;28;20470;-81
2022/10/11 06:43:38;;;;;;;17.03;5.50;;;10.30;1.00;;;;;;5018505;28;20457;-81
2022/10/11 06:46:05;;;;;;;19.00;6.57;;;10.40;1.00;;;;;;5017525;28;20996;-81
2022/10/11 06:48:33;;;;;;;13.27;5.23;;;10.50;1.00;;;;;;5018394;28;20417;-82
2022/10/11 06:51:00;;;;;;;18.43;5.90;;;10.50;1.00;;;;;;5018345;28;20475;-81
2022/10/11 06:53:28;;;;;;;16.43;6.07;;;10.60;1.00;;;;;;5016459;28;20481;-81
2022/10/11 06:56:02;;;;;;;15.17;5.63;;;10.60;1.00;;;;;;5023025;28;20553;-81
2022/10/11 06:58:29;;;;;;;19.73;6.50;;;10.70;1.00;;;;;;5011945;28;20454;-80
2022/10/11 07:01:00;;;;;;;17.13;5.20;;;10.80;1.00;;;;;;5012761;28;20571;-81
2022/10/11 07:03:28;;;;;;;15.17;5.70;;;10.80;1.00;;;;;;5017284;28;20426;-81
2022/10/11 07:06:00;;;;;;;17.37;6.70;;;10.90;1.00;;;;;;5015243;28;20575;-81
2022/10/11 07:08:31;;;;;;;15.43;6.30;;;10.90;1.00;;;;;;5015116;28;20493;-81
2022/10/11 07:11:05;;;;;;;16.83;5.40;;;11.00;1.00;;;;;;5014804;28;20437;-81
2022/10/11 07:13:32;;;;;;;13.13;4.93;;;11.10;1.00;;;;;;5282665;23;21324;-80
2022/10/11 07:16:01;;;;;;;17.50;6.37;;;11.00;1.00;;;;;;5058558;28;20416;-82
2022/10/11 07:18:28;;;;;;;17.43;5.20;;;11.10;1.00;;;;;;5070573;28;20475;-81
2022/10/11 07:20:55;;;;;;;14.87;5.67;;;11.10;1.00;;;;;;5058150;28;21396;-81
2022/10/11 07:23:22;;;;;;;16.47;5.00;;;11.10;1.00;;;;;;5055996;28;21049;-81
2022/10/11 07:25:53;;;;;;;16.20;5.20;;;11.10;1.00;;;;;;5054540;28;20470;-83
2022/10/11 07:28:20;;;;;;;19.47;5.60;;;11.20;1.00;;;;;;5057292;28;20507;-80
2022/10/11 07:30:49;;;;;;;13.37;4.87;;;11.30;1.00;;;;;;5057393;28;20471;-82
2022/10/11 07:33:21;;;;;;;13.77;5.63;;;11.40;1.00;;;;;;5061800;28;20479;-81
2022/10/11 07:35:49;;;;;;;14.67;5.17;;;11.40;1.00;;;;;;5061114;28;20452;-82
2022/10/11 07:38:17;;;;;;;16.13;5.33;;;11.50;1.00;;;;;;5065746;28;20466;-82
2022/10/11 07:40:46;;;;;;;17.80;6.60;;;11.60;1.00;;;;;;5066543;28;20729;-82
2022/10/11 07:43:14;;;;;;;12.53;5.07;;;11.60;1.00;;;;;;5062372;28;20818;-82
2022/10/11 07:45:44;;;;;;;16.77;6.20;;;11.80;1.00;;;;;;5060652;28;20441;-82
2022/10/11 07:48:11;;;;;;;16.13;6.00;;;11.90;1.00;;;;;;5063007;28;20455;-82
2022/10/11 07:50:37;;;;;;;16.20;5.77;;;11.90;1.00;;;;;;5058632;28;20471;-83
2022/10/11 07:53:04;;;;;;;17.70;5.10;;;12.10;1.00;;;;;;5067181;28;22752;-84
2022/10/11 07:55:38;;;;;;;18.53;5.57;;;12.20;1.00;;;;;;5063134;28;20447;-82
2022/10/11 07:58:06;;;;;;;15.40;5.83;;;12.20;1.00;;;;;;5061335;28;20452;-83
2022/10/11 08:00:36;;;;;;;14.40;5.93;;;12.30;1.00;;;;;;5063236;28;20454;-82
2022/10/11 08:03:04;;;;;;;12.57;5.10;;;12.40;1.00;;;;;;5069043;28;21595;-83
2022/10/11 08:05:31;;;;;;;12.70;5.20;;;12.50;1.00;;;;;;5064075;28;21312;-83
2022/10/11 08:07:58;;;;;;;15.87;4.70;;;12.60;1.00;;;;;;5059833;28;20455;-84
2022/10/11 08:10:27;;;;;;;18.77;6.20;;;12.60;1.00;;;;;;5063003;28;20474;-89
2022/10/11 08:12:54;;;;;;;16.67;4.40;;;12.70;1.00;;;;;;5060092;28;20518;-82
2022/10/11 08:15:21;;;;;;;14.47;5.13;;;12.80;1.00;;;;;;5070876;28;20547;-83
2022/10/11 08:17:49;;;;;;;13.50;5.50;;;12.90;1.00;;;;;;5058520;28;20898;-81
2022/10/11 08:20:18;;;;;;;14.60;4.77;;;13.00;1.00;;;;;;5064519;28;20464;-83
2022/10/11 08:22:45;;;;;;;12.13;4.53;;;13.20;1.00;;;;;;5065222;28;20462;-82
2022/10/11 08:25:11;;;;;;;12.70;4.60;;;13.30;1.00;;;;;;5070885;28;21236;-82
2022/10/11 08:27:38;;;;;;;14.77;5.37;;;13.50;1.00;;;;;;5076399;28;20466;-83
2022/10/11 08:30:06;;;;;;;14.00;5.03;;;14.10;1.00;;;;;;5069078;28;20450;-83
2022/10/11 08:32:33;;;;;;;13.17;4.13;;;15.30;1.00;;;;;;5065331;28;20432;-83
2022/10/11 08:35:01;;;;;;;10.30;4.60;;;16.10;1.00;;;;;;5062733;28;21508;-83
2022/10/11 08:37:28;;;;;;;10.13;4.77;;;17.20;1.00;;;;;;5059321;28;20435;-82
2022/10/11 08:39:55;;;;;;;9.83;3.80;;;18.50;1.00;;;;;;5062484;28;22191;-81
2022/10/11 08:42:31;;;;;;;11.93;4.03;;;19.70;1.00;;;;;;5060301;28;20462;-83
2022/10/11 08:45:03;;;;;;;12.03;6.30;;;20.80;1.00;;;;;;5066858;28;20443;-82
2022/10/11 08:47:36;;;;;;;9.27;3.60;;;21.40;1.00;;;;;;5068338;28;20502;-83
2022/10/11 08:50:06;;;;;;;14.33;4.93;;;22.00;1.00;;;;;;5067740;28;20463;-83
2022/10/11 08:52:43;;;;;;;7.67;3.30;;;22.80;1.00;;;;;;5064089;28;20455;-83
2022/10/11 08:55:18;;;;;;;10.50;3.90;;;23.70;1.00;;;;;;5061526;28;20902;-85
2022/10/11 08:57:51;;;;;;;8.00;3.33;;;24.40;1.00;;;;;;5065243;28;20922;-85
2022/10/11 09:00:19;;;;;;;9.27;4.00;;;24.80;1.00;;;;;;5065860;28;20471;-85
2022/10/11 09:02:57;;;;;;;8.27;2.77;;;25.00;1.00;;;;;;5059495;28;20466;-83
2022/10/11 09:05:30;;;;;;;6.73;3.40;;;25.30;1.00;;;;;;5062439;28;20462;-84
2022/10/11 09:08:05;;;;;;;7.93;3.10;;;25.60;1.00;;;;;;5066641;28;20467;-84
2022/10/11 09:10:48;;;;;;;8.90;3.40;;;25.60;1.00;;;;;;5064774;28;20994;-83
2022/10/11 09:13:30;;;;;;;9.00;3.30;;;25.40;1.00;;;;;;5064792;28;20453;-83
2022/10/11 09:16:09;;;;;;;7.60;2.87;;;25.60;1.00;;;;;;5026263;28;20472;-83
2022/10/11 09:18:46;;;;;;;9.53;3.30;;;24.50;1.00;;;;;;5039332;28;20460;-82
2022/10/11 09:21:31;;;;;;;7.23;3.20;;;23.80;1.00;;;;;;5044365;28;20464;-82
2022/10/11 09:24:34;;;;;;;8.23;4.17;;;23.60;1.00;;;;;;5040343;28;20443;-83
2022/10/11 09:27:10;;;;;;;8.40;4.33;;;23.10;1.00;;;;;;5038643;28;20489;-84
2022/10/11 09:29:52;;;;;;;10.40;3.67;;;22.20;1.00;;;;;;5047043;28;20456;-83
2022/10/11 09:32:21;;;;;;;7.47;3.20;;;21.50;1.00;;;;;;5040609;28;20777;-82
2022/10/11 09:34:59;;;;;;;6.63;2.60;;;20.70;1.00;;;;;;5040005;28;20433;-84
2022/10/11 09:37:35;;;;;;;7.20;3.00;;;20.10;1.00;;;;;;5045994;28;20463;-83
2022/10/11 09:40:19;;;;;;;10.83;3.60;;;19.60;1.00;;;;;;5041922;28;20460;-83
2022/10/11 09:42:47;;;;;;;12.07;4.47;;;19.10;1.00;;;;;;5044003;28;20522;-83
2022/10/11 09:45:20;;;;;;;8.87;3.10;;;18.60;1.00;;;;;;5035219;28;20464;-85
2022/10/11 09:47:48;;;;;;;8.70;2.63;;;18.00;1.00;;;;;;5034599;28;20476;-82
2022/10/11 09:50:17;;;;;;;7.77;2.70;;;17.80;1.00;;;;;;5040740;28;20480;-84
2022/10/11 09:52:52;;;;;;;6.90;3.10;;;17.80;1.00;;;;;;5039395;28;20452;-83
2022/10/11 09:55:39;;;;;;;8.70;3.20;;;17.90;1.00;;;;;;5036869;28;20429;-84
2022/10/11 09:58:29;;;;;;;9.50;3.93;;;18.00;1.00;;;;;;5036654;28;20473;-84
2022/10/11 10:00:59;;;;;;;6.77;2.77;;;18.40;1.00;;;;;;5041835;28;22274;-85
2022/10/11 10:03:30;;;;;;;10.80;3.17;;;18.60;1.00;;;;;;5048401;28;21801;-83
2022/10/11 10:06:12;;;;;;;10.30;3.37;;;18.40;1.00;;;;;;5036727;28;20452;-83
2022/10/11 10:08:41;;;;;;;7.30;3.30;;;18.50;1.00;;;;;;5043661;28;20487;-82
2022/10/11 10:11:09;;;;;;;7.03;2.50;;;19.00;1.00;;;;;;5052142;28;20513;-82
2022/10/11 10:13:46;;;;;;;8.77;3.03;;;19.00;1.00;;;;;;5062354;28;20918;-82
2022/10/11 10:16:31;;;;;;;10.90;3.17;;;18.60;1.00;;;;;;5061052;28;20432;-89
2022/10/11 10:19:20;;;;;;;8.40;2.97;;;18.70;1.00;;;;;;5059404;28;20423;-88
2022/10/11 10:22:01;;;;;;;9.20;2.87;;;19.10;1.00;;;;;;5062070;28;20463;-82
2022/10/11 10:24:41;;;;;;;8.43;2.80;;;19.40;1.00;;;;;;5064104;28;20491;-84
2022/10/11 10:27:16;;;;;;;7.87;2.67;;;19.90;1.00;;;;;;5061597;28;21168;-85
2022/10/11 10:30:02;;;;;;;7.90;3.00;;;20.10;1.00;;;;;;5058872;28;20459;-83
2022/10/11 10:32:34;;;;;;;7.43;2.40;;;20.70;1.00;;;;;;5063727;28;20470;-84
2022/10/11 10:35:08;;;;;;;7.50;2.20;;;20.90;1.00;;;;;;5054967;28;21293;-82
2022/10/11 10:37:39;;;;;;;7.60;2.97;;;20.90;1.00;;;;;;5056559;28;20630;-81
2022/10/11 10:40:09;;;;;;;13.07;4.40;;;21.30;1.00;;;;;;5053084;28;24858;-85
2022/10/11 10:42:36;;;;;;;7.33;2.37;;;22.70;1.00;;;;;;5057676;28;20408;-84
2022/10/11 10:45:08;;;;;;;6.80;2.90;;;23.50;1.00;;;;;;5058450;28;20581;-83
2022/10/11 10:47:52;;;;;;;5.47;2.13;;;23.30;1.00;;;;;;5060316;28;21214;-83
2022/10/11 10:50:25;;;;;;;6.27;2.43;;;22.50;1.00;;;;;;5064048;28;20458;-85
2022/10/11 10:53:05;;;;;;;4.90;2.27;;;22.00;1.00;;;;;;5056123;28;20459;-83
2022/10/11 10:55:38;;;;;;;7.27;2.30;;;21.30;1.00;;;;;;5061061;28;20474;-82
2022/10/11 10:58:16;;;;;;;5.70;2.77;;;20.70;1.00;;;;;;5060243;28;20464;-84
2022/10/11 11:00:49;;;;;;;8.37;2.50;;;20.30;1.00;;;;;;5059789;28;20542;-82
2022/10/11 11:03:23;;;;;;;10.03;2.67;;;20.00;1.00;;;;;;5060776;28;20463;-85
2022/10/11 11:06:01;;;;;;;6.70;3.00;;;20.30;1.00;;;;;;5062210;28;20939;-83
2022/10/11 11:08:51;;;;;;;6.13;2.77;;;20.30;1.00;;;;;;5061811;28;20551;-81
2022/10/11 11:11:36;;;;;;;5.70;2.40;;;20.60;1.00;;;;;;5067517;28;21282;-87
2022/10/11 11:14:17;;;;;;;6.40;2.40;;;22.60;1.00;;;;;;5066334;28;20997;-85
2022/10/11 11:16:56;;;;;;;7.90;2.40;;;24.60;1.00;;;;;;5063204;28;20887;-84
2022/10/11 11:19:33;;;;;;;7.13;3.57;;;24.50;1.00;;;;;;5074867;28;20463;-83
2022/10/11 11:22:14;;;;;;;4.93;2.27;;;24.30;1.00;;;;;;5059819;28;20561;-80
2022/10/11 11:24:51;;;;;;;9.07;2.70;;;24.00;1.00;;;;;;5057442;28;20455;-81
2022/10/11 11:27:40;;;;;;;6.30;2.90;;;23.70;1.00;;;;;;5062992;28;20485;-80
2022/10/11 11:30:11;;;;;;;6.17;3.10;;;23.70;1.00;;;;;;5057551;28;20455;-79
2022/10/11 11:32:55;;;;;;;5.97;2.30;;;22.60;1.00;;;;;;5059806;28;20466;-81
2022/10/11 11:35:30;;;;;;;4.97;2.20;;;22.80;1.00;;;;;;5060894;28;20596;-79
2022/10/11 11:38:02;;;;;;;6.93;2.37;;;23.50;1.00;;;;;;5060851;28;20512;-79
2022/10/11 11:40:37;;;;;;;4.73;2.17;;;25.00;1.00;;;;;;5067350;28;20849;-76
2022/10/11 11:43:08;;;;;;;9.20;2.07;;;25.20;1.00;;;;;;5063363;28;20455;-78
2022/10/11 11:45:46;;;;;;;5.93;2.53;;;25.90;1.00;;;;;;5057305;28;20465;-80
2022/10/11 11:48:19;;;;;;;11.63;4.20;;;27.60;1.00;;;;;;5059223;28;20461;-82
2022/10/11 11:50:55;;;;;;;6.23;2.10;;;28.00;1.00;;;;;;5053846;28;20467;-81
2022/10/11 11:53:31;;;;;;;6.37;2.00;;;26.90;1.00;;;;;;5059646;28;20462;-81
2022/10/11 11:56:03;;;;;;;6.13;1.80;;;25.70;1.00;;;;;;5056376;28;20869;-80
2022/10/11 11:58:40;;;;;;;6.70;2.10;;;24.90;1.00;;;;;;5057115;28;20548;-79
2022/10/11 12:01:24;;;;;;;6.73;2.43;;;23.20;1.00;;;;;;5067612;28;20443;-80
2022/10/11 12:03:55;;;;;;;5.20;1.83;;;22.00;1.00;;;;;;5073612;28;22959;-79
2022/10/11 12:06:26;;;;;;;7.67;2.47;;;20.60;1.00;;;;;;5054309;28;20470;-83
2022/10/11 12:09:02;;;;;;;10.33;2.93;;;19.90;1.00;;;;;;5056947;28;20494;-80
2022/10/11 12:11:41;;;;;;;6.63;2.30;;;19.20;1.00;;;;;;5061624;28;20993;-80
2022/10/11 12:14:26;;;;;;;6.87;3.00;;;18.60;1.00;;;;;;5060243;28;20546;-80
2022/10/11 12:17:17;;;;;;;5.37;2.33;;;18.30;1.00;;;;;;5058369;28;20448;-82
2022/10/11 12:20:04;;;;;;;7.13;2.40;;;18.10;1.00;;;;;;5062543;28;20511;-80
2022/10/11 12:22:56;;;;;;;7.60;2.60;;;18.00;1.00;;;;;;5063257;28;20657;-81
2022/10/11 12:25:45;;;;;;;10.40;3.33;;;18.00;1.00;;;;;;5070889;28;20471;-81
2022/10/11 12:28:58;;;;;;;8.63;2.20;;;18.20;1.00;;;;;;5052958;28;20905;-80
2022/10/11 12:31:29;;;;;;;13.63;3.90;;;18.40;1.00;;;;;;5063778;28;21070;-80
2022/10/11 12:34:18;;;;;;;8.27;3.13;;;18.30;1.00;;;;;;5059242;28;20463;-79
2022/10/11 12:36:50;;;;;;;7.87;3.10;;;18.10;1.00;;;;;;5057756;28;20466;-79
2022/10/11 12:39:46;;;;;;;9.77;2.67;;;18.00;1.00;;;;;;5061713;28;20442;-80
2022/10/11 12:42:23;;;;;;;10.67;4.50;;;18.00;1.00;;;;;;5066588;28;20494;-82
2022/10/11 12:45:30;;;;;;;9.83;3.60;;;18.10;1.00;;;;;;5059655;28;20465;-79
2022/10/11 12:48:16;;;;;;;6.43;2.53;;;18.60;1.00;;;;;;5068076;28;20939;-80
2022/10/11 12:50:59;;;;;;;3.97;1.93;;;18.90;1.00;;;;;;5057967;28;20456;-79
2022/10/11 12:53:53;;;;;;;11.07;2.63;;;19.00;1.00;;;;;;5063547;28;20916;-79
2022/10/11 12:56:26;;;;;;;5.90;2.00;;;19.20;1.00;;;;;;5062959;28;20991;-80
2022/10/11 12:59:02;;;;;;;8.07;3.70;;;19.80;1.00;;;;;;5061755;28;20534;-80
2022/10/11 13:01:37;;;;;;;8.57;2.50;;;20.80;1.00;;;;;;5064586;28;20883;-81
2022/10/11 13:04:10;;;;;;;8.37;3.40;;;21.20;1.00;;;;;;5062673;28;20539;-82
2022/10/11 13:06:45;;;;;;;6.13;2.03;;;21.40;1.00;;;;;;5058451;28;20417;-80
2022/10/11 13:09:22;;;;;;;5.47;2.57;;;21.50;1.00;;;;;;5065957;28;20445;-81
2022/10/11 13:11:54;;;;;;;8.80;2.33;;;21.50;1.00;;;;;;5061563;28;20902;-81
2022/10/11 13:14:23;;;;;;;7.60;2.27;;;21.70;1.00;;;;;;5062430;28;20895;-79
2022/10/11 13:16:57;;;;;;;8.30;2.20;;;21.70;1.00;;;;;;5058803;28;20483;-80
2022/10/11 13:19:24;;;;;;;6.67;2.37;;;21.40;1.00;;;;;;5059834;28;21004;-80
2022/10/11 13:21:54;;;;;;;5.50;2.40;;;21.10;1.00;;;;;;5057953;28;20495;-82
2022/10/11 13:24:24;;;;;;;7.73;2.97;;;20.80;1.00;;;;;;5062345;28;20797;-79
2022/10/11 13:26:54;;;;;;;6.43;2.60;;;20.60;1.00;;;;;;5055695;28;20424;-82
2022/10/11 13:29:30;;;;;;;7.40;1.90;;;20.40;1.00;;;;;;5061032;28;20480;-80